Flight Track Log - Related Links

Times and Time Zones

All times are in EDT time to prevent confusion due to time zone crossing. See the SWA2852 flight status page for this flight to view local times or setup timezone preferences in your user account.

Time Position Orientation Groundspeed Altitude Reporting Facility
EDT Latitude Longitude Course Direction KTS MPH feet Rate Location/Type
Wed 09:42:52 AM 39.3167 -94.7167 21° North 158 182 1,800  Level Kansas City TRACON
Wed 09:44:04 AM 39.3833 -94.6833 21° North 238 274 3,700 2,417 Climbing Kansas City TRACON
Wed 09:45:11 AM 39.3931 -94.6022 81° East 227 261 7,400 3,209 Climbing Kansas City Center
Wed 09:46:13 AM 39.3292 -94.5703 159° South 263 303 10,600 2,806 Climbing Kansas City Center
Wed 09:47:15 AM 39.2319 -94.5736 182° South 320 368 13,200 2,710 Climbing Kansas City Center
Wed 09:48:17 AM 39.1397 -94.5772 182° South 340 391 16,200 2,855 Climbing Kansas City Center
Wed 09:49:19 AM 39.0425 -94.5797 181° South 360 414 19,100 2,855 Climbing Kansas City Center
Wed 09:50:21 AM 38.9236 -94.5839 182° South 378 435 22,100 2,371 Climbing Kansas City Center
Wed 09:51:23 AM 38.8164 -94.5875 182° South 399 459 24,000 1,984 Climbing Kansas City Center
Wed 09:52:25 AM 38.6839 -94.5892 181° South 424 488 26,200 1,935 Climbing Kansas City Center
Wed 09:53:27 AM 38.5672 -94.5603 169° South 443 510 28,000 1,839 Climbing Kansas City Center
Wed 09:54:29 AM 38.4292 -94.5272 169° South 453 521 30,000 1,839 Climbing Kansas City Center
Wed 09:55:31 AM 38.3089 -94.4961 169° South 460 529 31,800 1,887 Climbing Kansas City Center
Wed 09:56:33 AM 38.1975 -94.3936 144° Southeast 459 528 33,900 1,790 Climbing Kansas City Center
Wed 09:57:35 AM 38.1133 -94.2869 135° Southeast 448 516 35,500 1,403 Climbing Kansas City Center
Wed 09:58:37 AM 38.0306 -94.1783 134° Southeast 447 514 36,800 1,210 Climbing Kansas City Center
Wed 09:59:39 AM 37.9383 -94.0642 136° Southeast 448 516 38,000 1,065 Climbing Kansas City Center
Wed 10:00:41 AM 37.8514 -93.9528 135° Southeast 446 513 39,000 484 Climbing Kansas City Center
Wed 10:01:43 AM 37.7469 -93.8178 134° Southeast 447 514 39,000  Level Kansas City Center
Wed 10:02:45 AM 37.6792 -93.6900 124° Southeast 442 509 39,000  Level Kansas City Center
Wed 10:03:47 AM 37.6086 -93.5661 126° Southeast 438 504 39,000  Level Kansas City Center
Wed 10:04:49 AM 37.5381 -93.4422 126° Southeast 436 502 39,000  Level Kansas City Center
Wed 10:05:51 AM 37.4667 -93.3189 126° Southeast 436 502 39,000  Level Kansas City Center
Wed 10:06:53 AM 37.3967 -93.1947 125° Southeast 436 502 39,000  Level Kansas City Center
Wed 10:07:55 AM 37.3103 -93.0472 126° Southeast 437 503 39,000  Level Kansas City Center
Wed 10:08:57 AM 37.2383 -92.9225 126° Southeast 440 506 39,000  Level Kansas City Center
Wed 10:09:59 AM 37.1667 -92.7997 126° Southeast 439 505 39,000  Level Kansas City Center
Wed 10:11:01 AM 37.0956 -92.6786 126° Southeast 436 502 39,000  Level Kansas City Center
Wed 10:12:03 AM 37.0247 -92.5567 126° Southeast 434 499 39,000  Level Kansas City Center
Wed 10:13:05 AM 36.9528 -92.4350 126° Southeast 434 499 39,000  Level Kansas City Center
Wed 10:14:07 AM 36.8661 -92.2892 127° Southeast 435 501 39,000  Level Kansas City Center
Wed 10:14:33 AM 36.8322 -92.2389 130° Southeast 440 506 39,000  Level Memphis Center
Wed 10:15:33 AM 36.7633 -92.1181 125° Southeast 440 506 39,000  Level Memphis Center
Wed 10:16:33 AM 36.6919 -92.0000 127° Southeast 440 506 39,000  Level Memphis Center
Wed 10:17:33 AM 36.6247 -91.8850 126° Southeast 435 501 39,000  Level Memphis Center
Wed 10:18:33 AM 36.5531 -91.7675 127° Southeast 430 495 39,000  Level Memphis Center
Wed 10:19:33 AM 36.4833 -91.6500 126° Southeast 430 495 39,000  Level Memphis Center
Wed 10:20:33 AM 36.4136 -91.5483 130° Southeast 430 495 39,000  Level Memphis Center
Wed 10:21:33 AM 36.3458 -91.4289 125° Southeast 425 489 39,000  Level Memphis Center
Wed 10:22:33 AM 36.2758 -91.3147 127° Southeast 425 489 39,000  Level Memphis Center
Wed 10:23:33 AM 36.2058 -91.1981 127° Southeast 425 489 39,000  Level Memphis Center
Wed 10:24:33 AM 36.1314 -91.0817 128° Southeast 420 483 39,000  Level Memphis Center
Wed 10:25:33 AM 36.0592 -90.9656 128° Southeast 420 483 39,000  Level Memphis Center
Wed 10:26:33 AM 35.9908 -90.8494 126° Southeast 420 483 39,000  Level Memphis Center
Wed 10:27:33 AM 35.9161 -90.7311 128° Southeast 420 483 39,000  Level Memphis Center
Wed 10:28:33 AM 35.8456 -90.6156 127° Southeast 426 490 39,000  Level Memphis Center
Wed 10:29:33 AM 35.7728 -90.5003 128° Southeast 426 490 39,000  Level Memphis Center
Wed 10:30:33 AM 35.7019 -90.3853 127° Southeast 426 490 39,000  Level Memphis Center
Wed 10:31:33 AM 35.6289 -90.2575 125° Southeast 421 484 39,000  Level Memphis Center
Wed 10:32:33 AM 35.5536 -90.1375 128° Southeast 421 484 39,000  Level Memphis Center
Wed 10:33:33 AM 35.4803 -90.0231 128° Southeast 426 490 39,000  Level Memphis Center
Wed 10:34:33 AM 35.4069 -89.9061 128° Southeast 431 496 39,000  Level Memphis Center
Wed 10:35:33 AM 35.3336 -89.7894 128° Southeast 436 502 39,000  Level Memphis Center
Wed 10:36:33 AM 35.2619 -89.6731 127° Southeast 436 502 39,000  Level Memphis Center
Wed 10:37:33 AM 35.1842 -89.5542 129° Southeast 443 510 39,000  Level Memphis Center
Wed 10:38:33 AM 35.1167 -89.4508 129° Southeast 443 510 39,000  Level Memphis Center
Wed 10:39:33 AM 35.0406 -89.3325 128° Southeast 443 510 39,000  Level Memphis Center
Wed 10:40:33 AM 34.9667 -89.2167 128° Southeast 443 510 39,000  Level Memphis Center
Wed 10:41:33 AM 34.8906 -89.1064 130° Southeast 438 504 39,000  Level Memphis Center
Wed 10:42:33 AM 34.8097 -88.9811 128° Southeast 438 504 39,000  Level Memphis Center
Wed 10:43:33 AM 34.7356 -88.8711 129° Southeast 432 497 39,000  Level Memphis Center
Wed 10:44:33 AM 34.6631 -88.7589 128° Southeast 427 491 39,000  Level Memphis Center
Wed 10:45:33 AM 34.5908 -88.6517 129° Southeast 414 476 39,000  Level Memphis Center
Wed 10:46:33 AM 34.5183 -88.5447 129° Southeast 409 471 39,000  Level Memphis Center
Wed 10:47:33 AM 34.4458 -88.4331 128° Southeast 414 476 39,000  Level Memphis Center
Wed 10:48:33 AM 34.3708 -88.3214 129° Southeast 419 482 39,000  Level Memphis Center
Wed 10:49:33 AM 34.2961 -88.2100 129° Southeast 419 482 39,000  Level Memphis Center
Wed 10:50:33 AM 34.2294 -88.1036 127° Southeast 432 497 39,000  Level Memphis Center
Wed 10:51:33 AM 34.1564 -87.9903 128° Southeast 432 497 39,000  Level Memphis Center
Wed 10:53:52 AM 33.9828 -87.7414 130° Southeast 432 497 39,000  Level Atlanta Center
Wed 10:54:52 AM 33.9067 -87.6306 130° Southeast 432 497 39,000  Level Atlanta Center
Wed 10:55:52 AM 33.8306 -87.5197 130° Southeast 432 497 39,000  Level Atlanta Center
Wed 10:56:52 AM 33.7586 -87.4094 128° Southeast 432 497 39,000  Level Atlanta Center
Wed 10:57:52 AM 33.6822 -87.2992 130° Southeast 432 497 39,000  Level Atlanta Center
Wed 10:58:52 AM 33.6078 -87.1914 130° Southeast 432 497 39,000  Level Atlanta Center
Wed 10:59:52 AM 33.5333 -87.0817 129° Southeast 432 497 39,000  Level Atlanta Center
Wed 11:00:52 AM 33.4508 -86.9592 129° Southeast 432 497 39,000  Level Atlanta Center
Wed 11:01:52 AM 33.3761 -86.8522 130° Southeast 432 497 39,000  Level Atlanta Center
Wed 11:02:52 AM 33.3011 -86.7456 130° Southeast 432 497 39,000  Level Atlanta Center
Wed 11:03:52 AM 33.2325 -86.6339 126° Southeast 424 488 39,000  Level Atlanta Center
Wed 11:04:52 AM 33.1575 -86.5325 131° Southeast 419 482 39,000  Level Atlanta Center
Wed 11:05:52 AM 33.0825 -86.4139 127° Southeast 419 482 39,000  Level Atlanta Center
Wed 11:06:52 AM 33.0050 -86.3153 133° Southeast 419 482 39,000  Level Atlanta Center
Wed 11:07:52 AM 32.9297 -86.2117 131° Southeast 419 482 39,000  Level Atlanta Center
Wed 11:08:52 AM 32.8544 -86.1036 130° Southeast 414 476 39,000  Level Atlanta Center
Wed 11:09:52 AM 32.7811 -85.9956 129° Southeast 414 476 39,000  Level Atlanta Center
Wed 11:10:52 AM 32.7014 -85.8878 131° Southeast 414 476 39,000  Level Atlanta Center
Wed 11:11:52 AM 32.6278 -85.7800 129° Southeast 419 482 39,000  Level Atlanta Center
Wed 11:12:52 AM 32.5478 -85.6700 131° Southeast 419 482 39,000  Level Atlanta Center
Wed 11:13:52 AM 32.4697 -85.5628 131° Southeast 424 488 39,000  Level Atlanta Center
Wed 11:14:52 AM 32.3919 -85.4533 130° Southeast 424 488 39,000  Level Atlanta Center
Wed 11:15:52 AM 32.3136 -85.3464 131° Southeast 430 495 39,000  Level Atlanta Center
Wed 11:16:52 AM 32.2333 -85.2394 132° Southeast 430 495 39,000  Level Atlanta Center
Wed 11:17:52 AM 32.1736 -85.1553 130° Southeast 430 495 39,000  Level Atlanta Center
Wed 11:18:52 AM 32.0828 -85.0364 132° Southeast 419 482 39,000  Level Atlanta Center
Wed 11:19:52 AM 32.0064 -84.9303 130° Southeast 419 482 39,000  Level Atlanta Center
Wed 11:20:52 AM 31.9278 -84.8244 131° Southeast 419 482 39,000  Level Atlanta Center
Wed 11:22:40 AM 31.7933 -84.6353 130° Southeast 453 521 39,000  Level Jacksonville Center
Wed 11:23:40 AM 31.7175 -84.5339 131° Southeast 437 503 39,000  Level Jacksonville Center
Wed 11:24:40 AM 31.6394 -84.4300 131° Southeast 426 490 39,000  Level Jacksonville Center
Wed 11:25:40 AM 31.5694 -84.3361 131° Southeast 421 484 39,000  Level Jacksonville Center
Wed 11:26:40 AM 31.4933 -84.2303 130° Southeast 421 484 39,000  Level Jacksonville Center
Wed 11:27:40 AM 31.4153 -84.1267 131° Southeast 421 484 39,000  Level Jacksonville Center
Wed 11:28:40 AM 31.3389 -84.0236 131° Southeast 421 484 39,000  Level Jacksonville Center
Wed 11:29:40 AM 31.2603 -83.9206 132° Southeast 421 484 39,000  Level Jacksonville Center
Wed 11:30:40 AM 31.1839 -83.8178 131° Southeast 421 484 39,000  Level Jacksonville Center
Wed 11:31:40 AM 31.1053 -83.7128 131° Southeast 421 484 39,000 -200 Level Jacksonville Center
Wed 11:32:40 AM 31.0286 -83.6125 132° Southeast 421 484 38,600 -750 Descending Jacksonville Center
Wed 11:33:40 AM 30.9519 -83.5078 130° Southeast 421 484 37,500 -1,850 Descending Jacksonville Center
Wed 11:34:40 AM 30.8711 -83.4008 131° Southeast 421 484 34,900 -2,900 Descending Jacksonville Center
Wed 11:35:40 AM 30.7858 -83.2844 130° Southeast 426 490 31,700 -2,750 Descending Jacksonville Center
Wed 11:36:40 AM 30.6964 -83.1922 138° Southeast 431 496 29,400 -2,300 Descending Jacksonville Center
Wed 11:37:40 AM 30.6089 -83.1000 138° Southeast 425 489 27,100 -1,350 Descending Jacksonville Center
Wed 11:38:40 AM 30.5233 -83.0108 138° Southeast 420 483 26,700 -700 Descending Jacksonville Center
Wed 11:39:40 AM 30.4356 -82.9214 139° Southeast 415 478 25,700 -850 Descending Jacksonville Center
Wed 11:40:40 AM 30.3500 -82.8372 140° Southeast 410 472 25,000 -350 Descending Jacksonville Center
Wed 11:41:40 AM 30.2686 -82.7508 137° Southeast 410 472 25,000  Level Jacksonville Center
Wed 11:42:40 AM 30.1828 -82.6667 140° Southeast 405 466 25,000  Level Jacksonville Center
Wed 11:43:40 AM 30.1011 -82.5828 138° Southeast 405 466 25,000  Level Jacksonville Center
Wed 11:44:40 AM 30.0194 -82.4992 138° Southeast 405 466 25,000  Level Jacksonville Center
Wed 11:45:40 AM 29.9233 -82.4372 151° Southeast 405 466 25,000  Level Jacksonville Center
Wed 11:46:40 AM 29.8208 -82.3969 161° South 390 449 25,000  Level Jacksonville Center
Wed 11:47:40 AM 29.7122 -82.3592 163° South 395 455 25,000 -200 Level Jacksonville Center
Wed 11:48:40 AM 29.6075 -82.3217 163° South 400 460 24,600 -1,000 Descending Jacksonville Center
Wed 11:49:40 AM 29.5136 -82.2889 163° South 400 460 23,000 -1,900 Descending Jacksonville Center
Wed 11:50:40 AM 29.4089 -82.2536 164° South 395 455 20,800 -2,150 Descending Jacksonville Center
Wed 11:51:40 AM 29.3086 -82.2161 162° South 389 448 18,700 -2,100 Descending Jacksonville Center
Wed 11:52:40 AM 29.2144 -82.1811 162° South 381 438 16,600 -1,350 Descending Jacksonville Center
Wed 11:53:40 AM 29.1222 -82.1344 156° South 375 432 16,000 -300 Descending Jacksonville Center
Wed 11:54:40 AM 29.0386 -82.0828 152° Southeast 357 411 16,000 -1,350 Level Jacksonville Center
Wed 11:55:40 AM 28.9589 -82.0192 145° Southeast 349 402 13,300 -2,450 Descending Jacksonville Center
Wed 11:56:40 AM 28.8894 -81.9392 135° Southeast 349 402 11,100 -1,500 Descending Jacksonville Center
Wed 11:57:40 AM 28.8406 -81.8567 124° Southeast 334 384 10,300 -528 Descending Jacksonville Center
Wed 11:58:45 AM 28.7833 -81.7667 126° Southeast 286 329 10,000 -144 Descending Orlando TRACON
Wed 11:59:45 AM 28.7833 -81.6833 90° East 283 326 10,000 -1,050 Level Orlando TRACON
Wed 12:00:45 PM 28.7667 -81.5833 101° East 275 316 7,900 -2,000 Descending Orlando TRACON
Wed 12:01:45 PM 28.7500 -81.5000 103° East 267 307 6,000 -1,140 Descending Orlando TRACON
Wed 12:02:46 PM 28.7333 -81.4333 106° East 225 259 5,600 -942 Descending Orlando TRACON
Wed 12:03:46 PM 28.6833 -81.3833 139° Southeast 221 254 4,100 -1,300 Descending Orlando TRACON
Wed 12:04:46 PM 28.6500 -81.3333 127° Southeast 204 235 3,000 -650 Descending Orlando TRACON
Wed 12:05:46 PM 28.6000 -81.3333 180° South 183 211 2,800 -550 Descending Orlando TRACON
Wed 12:06:46 PM 28.5500 -81.3333 180° South 179 206 1,900 -850 Descending Orlando TRACON
Wed 12:07:46 PM 28.5000 -81.3333 180° South 142 163 1,100 -793 Descending Orlando TRACON
Wed 12:08:47 PM 28.4667 -81.3333 180° South 135 155 300 -787 Descending Orlando TRACON
Wed 12:10:00 PM 28.4294 -81.3090 209° Southwest  Level Estimated
Wed 12:17:00 PM 28.4294 -81.3090 24° Northeast  Level Estimated
Wed 12:18:00 PM 28.4294 -81.3090 24° Northeast  Level Estimated
Wed 12:19:00 PM 28.4294 -81.3090 24° Northeast  Level Estimated
Wed 12:20:00 PM 28.4294 -81.3090 24° Northeast  Level Estimated

Login

Don't have an account? Register now (free) for customized features, flight alerts, and more!